sensor_id;sensor_type;location;lat;lon;timestamp;temperature;humidity
70593;DHT22;58294;42.988;20.338;2023-03-14T00:00:52;103.10;1740.80
70593;DHT22;58294;42.988;20.338;2023-03-14T00:03:18;103.10;1715.20
70593;DHT22;58294;42.988;20.338;2023-03-14T00:05:43;103.10;1740.80
70593;DHT22;58294;42.988;20.338;2023-03-14T00:08:09;103.10;1740.80
70593;DHT22;58294;42.988;20.338;2023-03-14T00:10:35;103.10;1715.20
70593;DHT22;58294;42.988;20.338;2023-03-14T00:13:01;103.10;1740.80
70593;DHT22;58294;42.988;20.338;2023-03-14T00:15:26;103.10;1740.80
70593;DHT22;58294;42.988;20.338;2023-03-14T00:17:52;103.10;1740.80
70593;DHT22;58294;42.988;20.338;2023-03-14T00:20:17;103.10;1740.80
70593;DHT22;58294;42.988;20.338;2023-03-14T00:22:43;103.10;1740.80
70593;DHT22;58294;42.988;20.338;2023-03-14T00:25:09;103.00;1740.80
70593;DHT22;58294;42.988;20.338;2023-03-14T00:27:35;103.00;1740.80
70593;DHT22;58294;42.988;20.338;2023-03-14T00:30:02;102.90;1715.20
70593;DHT22;58294;42.988;20.338;2023-03-14T00:32:28;102.80;1715.20
70593;DHT22;58294;42.988;20.338;2023-03-14T00:34:53;102.80;1715.20
70593;DHT22;58294;42.988;20.338;2023-03-14T00:37:19;102.80;1715.20
70593;DHT22;58294;42.988;20.338;2023-03-14T00:39:44;102.70;1715.20
70593;DHT22;58294;42.988;20.338;2023-03-14T00:42:10;102.60;1715.20
70593;DHT22;58294;42.988;20.338;2023-03-14T00:44:35;102.60;1715.20
70593;DHT22;58294;42.988;20.338;2023-03-14T00:47:01;102.50;1740.80
70593;DHT22;58294;42.988;20.338;2023-03-14T00:49:27;102.50;1740.80
70593;DHT22;58294;42.988;20.338;2023-03-14T00:51:52;102.50;1766.40
70593;DHT22;58294;42.988;20.338;2023-03-14T00:54:18;102.40;1766.40
70593;DHT22;58294;42.988;20.338;2023-03-14T00:56:44;102.40;1766.40
70593;DHT22;58294;42.988;20.338;2023-03-14T00:59:10;102.40;1766.40
70593;DHT22;58294;42.988;20.338;2023-03-14T01:01:35;102.40;1766.40
70593;DHT22;58294;42.988;20.338;2023-03-14T01:04:01;102.40;1766.40
70593;DHT22;58294;42.988;20.338;2023-03-14T01:06:27;102.40;1766.40
70593;DHT22;58294;42.988;20.338;2023-03-14T01:08:53;102.40;1766.40
70593;DHT22;58294;42.988;20.338;2023-03-14T01:11:21;77.70;1792.00
70593;DHT22;58294;42.988;20.338;2023-03-14T01:13:47;77.70;1792.00
70593;DHT22;58294;42.988;20.338;2023-03-14T01:16:13;77.70;1792.00
70593;DHT22;58294;42.988;20.338;2023-03-14T01:18:39;77.70;1792.00
70593;DHT22;58294;42.988;20.338;2023-03-14T01:23:40;102.40;1817.60
70593;DHT22;58294;42.988;20.338;2023-03-14T01:26:07;102.40;1817.60
70593;DHT22;58294;42.988;20.338;2023-03-14T01:28:33;102.40;1817.60
70593;DHT22;58294;42.988;20.338;2023-03-14T01:31:02;102.40;1817.60
70593;DHT22;58294;42.988;20.338;2023-03-14T01:33:27;102.40;1792.00
70593;DHT22;58294;42.988;20.338;2023-03-14T01:35:53;102.40;1817.60
70593;DHT22;58294;42.988;20.338;2023-03-14T01:38:18;102.40;1792.00
70593;DHT22;58294;42.988;20.338;2023-03-14T01:40:44;102.40;1792.00
70593;DHT22;58294;42.988;20.338;2023-03-14T01:43:17;102.40;1792.00
70593;DHT22;58294;42.988;20.338;2023-03-14T01:46:01;102.40;1792.00
70593;DHT22;58294;42.988;20.338;2023-03-14T01:48:32;102.40;1792.00
70593;DHT22;58294;42.988;20.338;2023-03-14T01:51:00;102.40;1792.00
70593;DHT22;58294;42.988;20.338;2023-03-14T01:53:27;102.40;1792.00
70593;DHT22;58294;42.988;20.338;2023-03-14T01:55:53;77.70;1792.00
70593;DHT22;58294;42.988;20.338;2023-03-14T01:58:21;77.60;1766.40
70593;DHT22;58294;42.988;20.338;2023-03-14T02:00:48;77.60;1792.00
70593;DHT22;58294;42.988;20.338;2023-03-14T02:03:17;77.50;1766.40
70593;DHT22;58294;42.988;20.338;2023-03-14T02:05:44;77.50;1792.00
70593;DHT22;58294;42.988;20.338;2023-03-14T02:08:11;77.50;1792.00
70593;DHT22;58294;42.988;20.338;2023-03-14T02:10:41;77.50;1817.60
70593;DHT22;58294;42.988;20.338;2023-03-14T02:13:08;77.50;1817.60
70593;DHT22;58294;42.988;20.338;2023-03-14T02:15:34;77.40;1817.60
70593;DHT22;58294;42.988;20.338;2023-03-14T02:18:00;77.40;1817.60
70593;DHT22;58294;42.988;20.338;2023-03-14T02:20:40;77.40;1843.20
70593;DHT22;58294;42.988;20.338;2023-03-14T02:23:09;77.50;1843.20
70593;DHT22;58294;42.988;20.338;2023-03-14T02:28:00;77.50;1843.20
70593;DHT22;58294;42.988;20.338;2023-03-14T02:30:27;77.50;1817.60
70593;DHT22;58294;42.988;20.338;2023-03-14T02:33:26;77.50;1817.60
70593;DHT22;58294;42.988;20.338;2023-03-14T02:36:00;77.40;1817.60
70593;DHT22;58294;42.988;20.338;2023-03-14T02:38:34;77.40;1817.60
70593;DHT22;58294;42.988;20.338;2023-03-14T02:41:02;77.40;1817.60
70593;DHT22;58294;42.988;20.338;2023-03-14T02:43:28;77.30;1817.60
70593;DHT22;58294;42.988;20.338;2023-03-14T02:45:53;77.30;1843.20
70593;DHT22;58294;42.988;20.338;2023-03-14T02:50:48;77.40;1843.20
70593;DHT22;58294;42.988;20.338;2023-03-14T02:53:16;77.40;1817.60
70593;DHT22;58294;42.988;20.338;2023-03-14T02:55:46;77.30;1817.60
70593;DHT22;58294;42.988;20.338;2023-03-14T02:58:12;77.30;1817.60
70593;DHT22;58294;42.988;20.338;2023-03-14T03:00:37;77.30;1817.60
70593;DHT22;58294;42.988;20.338;2023-03-14T03:03:03;77.30;1843.20
70593;DHT22;58294;42.988;20.338;2023-03-14T03:05:31;77.30;1843.20
70593;DHT22;58294;42.988;20.338;2023-03-14T03:07:56;77.30;1843.20
70593;DHT22;58294;42.988;20.338;2023-03-14T03:10:22;77.30;1843.20
70593;DHT22;58294;42.988;20.338;2023-03-14T03:12:48;77.30;1868.80
70593;DHT22;58294;42.988;20.338;2023-03-14T03:15:13;77.30;1868.80
70593;DHT22;58294;42.988;20.338;2023-03-14T03:17:39;77.30;1868.80
70593;DHT22;58294;42.988;20.338;2023-03-14T03:20:05;77.30;1843.20
70593;DHT22;58294;42.988;20.338;2023-03-14T03:22:33;77.30;1868.80
70593;DHT22;58294;42.988;20.338;2023-03-14T03:24:59;77.20;1868.80
70593;DHT22;58294;42.988;20.338;2023-03-14T03:27:25;77.30;1868.80
70593;DHT22;58294;42.988;20.338;2023-03-14T03:29:50;77.30;1868.80
70593;DHT22;58294;42.988;20.338;2023-03-14T03:32:16;77.30;1868.80
70593;DHT22;58294;42.988;20.338;2023-03-14T03:34:42;77.30;1868.80
70593;DHT22;58294;42.988;20.338;2023-03-14T03:37:07;77.30;1868.80
70593;DHT22;58294;42.988;20.338;2023-03-14T03:39:33;77.30;1868.80
70593;DHT22;58294;42.988;20.338;2023-03-14T03:41:58;77.40;1868.80
70593;DHT22;58294;42.988;20.338;2023-03-14T03:44:24;77.30;1868.80
70593;DHT22;58294;42.988;20.338;2023-03-14T03:46:49;77.30;1868.80
70593;DHT22;58294;42.988;20.338;2023-03-14T03:49:15;77.30;1843.20
70593;DHT22;58294;42.988;20.338;2023-03-14T03:51:41;77.30;1843.20
70593;DHT22;58294;42.988;20.338;2023-03-14T03:54:07;77.20;1817.60
70593;DHT22;58294;42.988;20.338;2023-03-14T03:56:32;77.10;1843.20
70593;DHT22;58294;42.988;20.338;2023-03-14T03:58:58;77.10;1843.20
70593;DHT22;58294;42.988;20.338;2023-03-14T04:01:23;77.10;1843.20
70593;DHT22;58294;42.988;20.338;2023-03-14T04:03:49;77.10;1868.80
70593;DHT22;58294;42.988;20.338;2023-03-14T04:06:15;77.20;1868.80
70593;DHT22;58294;42.988;20.338;2023-03-14T04:08:40;77.20;1868.80
70593;DHT22;58294;42.988;20.338;2023-03-14T04:11:06;77.20;1843.20
70593;DHT22;58294;42.988;20.338;2023-03-14T04:13:32;77.20;1843.20
70593;DHT22;58294;42.988;20.338;2023-03-14T04:15:58;77.20;1843.20
70593;DHT22;58294;42.988;20.338;2023-03-14T04:18:24;77.20;1868.80
70593;DHT22;58294;42.988;20.338;2023-03-14T04:20:55;77.20;1868.80
70593;DHT22;58294;42.988;20.338;2023-03-14T04:23:22;77.30;1868.80
70593;DHT22;58294;42.988;20.338;2023-03-14T04:25:51;77.30;1868.80
70593;DHT22;58294;42.988;20.338;2023-03-14T04:28:16;77.30;1868.80
70593;DHT22;58294;42.988;20.338;2023-03-14T04:30:42;77.30;1868.80
70593;DHT22;58294;42.988;20.338;2023-03-14T04:33:08;77.30;1868.80
70593;DHT22;58294;42.988;20.338;2023-03-14T04:35:33;77.30;1868.80
70593;DHT22;58294;42.988;20.338;2023-03-14T04:37:59;77.20;1868.80
70593;DHT22;58294;42.988;20.338;2023-03-14T04:40:25;77.20;1843.20
70593;DHT22;58294;42.988;20.338;2023-03-14T04:42:50;77.10;1843.20
70593;DHT22;58294;42.988;20.338;2023-03-14T04:45:16;77.00;1843.20
70593;DHT22;58294;42.988;20.338;2023-03-14T04:47:42;77.00;1843.20
70593;DHT22;58294;42.988;20.338;2023-03-14T04:50:08;77.00;1843.20
70593;DHT22;58294;42.988;20.338;2023-03-14T04:52:33;76.90;1843.20
70593;DHT22;58294;42.988;20.338;2023-03-14T04:54:59;76.80;1843.20
70593;DHT22;58294;42.988;20.338;2023-03-14T04:57:25;76.80;1868.80
70593;DHT22;58294;42.988;20.338;2023-03-14T04:59:50;76.80;1868.80
70593;DHT22;58294;42.988;20.338;2023-03-14T05:02:16;52.10;1868.80
70593;DHT22;58294;42.988;20.338;2023-03-14T05:04:41;52.10;1868.80
70593;DHT22;58294;42.988;20.338;2023-03-14T05:07:07;52.10;1868.80
70593;DHT22;58294;42.988;20.338;2023-03-14T05:09:32;52.00;1868.80
70593;DHT22;58294;42.988;20.338;2023-03-14T05:11:58;52.10;1894.40
70593;DHT22;58294;42.988;20.338;2023-03-14T05:14:23;52.10;1920.00
70593;DHT22;58294;42.988;20.338;2023-03-14T05:16:49;52.10;1920.00
70593;DHT22;58294;42.988;20.338;2023-03-14T05:19:15;52.10;1894.40
70593;DHT22;58294;42.988;20.338;2023-03-14T05:21:40;52.10;1894.40
70593;DHT22;58294;42.988;20.338;2023-03-14T05:24:06;52.10;1894.40
70593;DHT22;58294;42.988;20.338;2023-03-14T05:26:31;52.10;1920.00
70593;DHT22;58294;42.988;20.338;2023-03-14T05:28:57;52.10;1920.00
70593;DHT22;58294;42.988;20.338;2023-03-14T05:31:22;52.10;1920.00
70593;DHT22;58294;42.988;20.338;2023-03-14T05:33:48;76.80;1920.00
70593;DHT22;58294;42.988;20.338;2023-03-14T05:36:14;76.80;1920.00
70593;DHT22;58294;42.988;20.338;2023-03-14T05:38:39;76.80;1920.00
70593;DHT22;58294;42.988;20.338;2023-03-14T05:41:05;76.90;1920.00
70593;DHT22;58294;42.988;20.338;2023-03-14T05:43:30;76.90;1920.00
70593;DHT22;58294;42.988;20.338;2023-03-14T05:45:56;77.00;1920.00
70593;DHT22;58294;42.988;20.338;2023-03-14T05:48:21;77.00;1920.00
70593;DHT22;58294;42.988;20.338;2023-03-14T05:50:47;77.00;1945.60
70593;DHT22;58294;42.988;20.338;2023-03-14T05:53:13;77.00;1920.00
70593;DHT22;58294;42.988;20.338;2023-03-14T05:55:39;77.10;1945.60
70593;DHT22;58294;42.988;20.338;2023-03-14T05:58:05;77.10;1920.00
70593;DHT22;58294;42.988;20.338;2023-03-14T06:00:30;77.20;1920.00
70593;DHT22;58294;42.988;20.338;2023-03-14T06:02:56;77.20;1945.60
70593;DHT22;58294;42.988;20.338;2023-03-14T06:05:22;77.30;1945.60
70593;DHT22;58294;42.988;20.338;2023-03-14T06:07:47;77.40;1920.00
70593;DHT22;58294;42.988;20.338;2023-03-14T06:10:13;77.40;1945.60
70593;DHT22;58294;42.988;20.338;2023-03-14T06:12:38;77.50;1945.60
70593;DHT22;58294;42.988;20.338;2023-03-14T06:15:04;77.60;1945.60
70593;DHT22;58294;42.988;20.338;2023-03-14T06:17:30;77.70;1945.60
70593;DHT22;58294;42.988;20.338;2023-03-14T06:19:55;102.40;1945.60
70593;DHT22;58294;42.988;20.338;2023-03-14T06:22:21;102.50;1945.60
70593;DHT22;58294;42.988;20.338;2023-03-14T06:24:46;102.60;1920.00
70593;DHT22;58294;42.988;20.338;2023-03-14T06:27:12;102.60;1945.60
70593;DHT22;58294;42.988;20.338;2023-03-14T06:29:37;102.70;1945.60
70593;DHT22;58294;42.988;20.338;2023-03-14T06:32:03;102.70;1945.60
70593;DHT22;58294;42.988;20.338;2023-03-14T06:34:30;102.80;1945.60
70593;DHT22;58294;42.988;20.338;2023-03-14T06:36:56;102.80;1945.60
70593;DHT22;58294;42.988;20.338;2023-03-14T06:39:21;102.90;1971.20
70593;DHT22;58294;42.988;20.338;2023-03-14T06:41:47;103.00;1945.60
70593;DHT22;58294;42.988;20.338;2023-03-14T06:44:12;103.10;1945.60
70593;DHT22;58294;42.988;20.338;2023-03-14T06:46:38;103.10;1920.00
70593;DHT22;58294;42.988;20.338;2023-03-14T06:49:03;103.20;1945.60
70593;DHT22;58294;42.988;20.338;2023-03-14T06:51:29;103.30;1945.60
70593;DHT22;58294;42.988;20.338;2023-03-14T06:53:54;128.00;1945.60
70593;DHT22;58294;42.988;20.338;2023-03-14T06:56:20;128.10;1945.60
70593;DHT22;58294;42.988;20.338;2023-03-14T06:58:45;128.30;1945.60
70593;DHT22;58294;42.988;20.338;2023-03-14T07:01:17;128.40;1971.20
70593;DHT22;58294;42.988;20.338;2023-03-14T07:03:45;128.60;1996.80
70593;DHT22;58294;42.988;20.338;2023-03-14T07:06:10;128.80;1996.80
70593;DHT22;58294;42.988;20.338;2023-03-14T07:08:36;153.60;1971.20
70593;DHT22;58294;42.988;20.338;2023-03-14T07:11:03;153.70;1971.20
70593;DHT22;58294;42.988;20.338;2023-03-14T07:13:29;153.80;1996.80
70593;DHT22;58294;42.988;20.338;2023-03-14T07:15:54;153.90;1996.80
70593;DHT22;58294;42.988;20.338;2023-03-14T07:18:20;154.00;2022.40
70593;DHT22;58294;42.988;20.338;2023-03-14T07:20:45;154.20;2022.40
70593;DHT22;58294;42.988;20.338;2023-03-14T07:23:11;154.30;1996.80
70593;DHT22;58294;42.988;20.338;2023-03-14T07:25:37;154.50;2022.40
70593;DHT22;58294;42.988;20.338;2023-03-14T07:28:02;179.20;2022.40
70593;DHT22;58294;42.988;20.338;2023-03-14T07:30:28;179.40;1996.80
70593;DHT22;58294;42.988;20.338;2023-03-14T07:32:53;179.50;1945.60
70593;DHT22;58294;42.988;20.338;2023-03-14T07:35:19;179.60;1945.60
70593;DHT22;58294;42.988;20.338;2023-03-14T07:37:45;179.70;1945.60
70593;DHT22;58294;42.988;20.338;2023-03-14T07:40:10;179.90;1971.20
70593;DHT22;58294;42.988;20.338;2023-03-14T07:42:40;180.00;1971.20
70593;DHT22;58294;42.988;20.338;2023-03-14T07:45:06;204.90;1971.20
70593;DHT22;58294;42.988;20.338;2023-03-14T07:47:32;205.00;1920.00
70593;DHT22;58294;42.988;20.338;2023-03-14T07:49:57;205.10;1920.00
70593;DHT22;58294;42.988;20.338;2023-03-14T07:52:23;205.20;1920.00
70593;DHT22;58294;42.988;20.338;2023-03-14T07:54:49;205.30;1894.40
70593;DHT22;58294;42.988;20.338;2023-03-14T07:57:15;205.40;1920.00
70593;DHT22;58294;42.988;20.338;2023-03-14T07:59:40;205.50;1894.40
70593;DHT22;58294;42.988;20.338;2023-03-14T08:02:07;205.70;1945.60
70593;DHT22;58294;42.988;20.338;2023-03-14T08:04:37;230.50;1920.00
70593;DHT22;58294;42.988;20.338;2023-03-14T08:07:03;230.60;1920.00
70593;DHT22;58294;42.988;20.338;2023-03-14T08:09:28;230.70;1945.60
70593;DHT22;58294;42.988;20.338;2023-03-14T08:11:54;230.90;1945.60
70593;DHT22;58294;42.988;20.338;2023-03-14T08:14:19;231.10;1894.40
70593;DHT22;58294;42.988;20.338;2023-03-14T08:16:45;231.20;1920.00
70593;DHT22;58294;42.988;20.338;2023-03-14T08:19:10;256.00;1920.00
70593;DHT22;58294;42.988;20.338;2023-03-14T08:21:36;256.20;1920.00
70593;DHT22;58294;42.988;20.338;2023-03-14T08:24:02;256.60;1920.00
70593;DHT22;58294;42.988;20.338;2023-03-14T08:26:27;256.60;1843.20
70593;DHT22;58294;42.988;20.338;2023-03-14T08:28:53;256.70;1843.20
70593;DHT22;58294;42.988;20.338;2023-03-14T08:31:19;256.90;1843.20
70593;DHT22;58294;42.988;20.338;2023-03-14T08:33:44;281.60;1792.00
70593;DHT22;58294;42.988;20.338;2023-03-14T08:36:10;281.90;1766.40
70593;DHT22;58294;42.988;20.338;2023-03-14T08:38:36;281.90;1792.00
70593;DHT22;58294;42.988;20.338;2023-03-14T08:41:02;282.00;1766.40
70593;DHT22;58294;42.988;20.338;2023-03-14T08:43:28;282.10;1740.80
70593;DHT22;58294;42.988;20.338;2023-03-14T08:45:56;282.20;1766.40
70593;DHT22;58294;42.988;20.338;2023-03-14T08:48:22;282.30;1792.00
70593;DHT22;58294;42.988;20.338;2023-03-14T08:50:48;282.50;1766.40
70593;DHT22;58294;42.988;20.338;2023-03-14T08:53:13;307.20;1792.00
70593;DHT22;58294;42.988;20.338;2023-03-14T08:55:39;307.30;1817.60
70593;DHT22;58294;42.988;20.338;2023-03-14T08:58:04;307.30;2304.00
70593;DHT22;58294;42.988;20.338;2023-03-14T09:00:30;307.50;1740.80
70593;DHT22;58294;42.988;20.338;2023-03-14T09:02:55;307.70;1766.40
70593;DHT22;58294;42.988;20.338;2023-03-14T09:05:21;307.70;1792.00
70593;DHT22;58294;42.988;20.338;2023-03-14T09:07:46;307.90;1689.60
70593;DHT22;58294;42.988;20.338;2023-03-14T09:10:12;308.10;1766.40
70593;DHT22;58294;42.988;20.338;2023-03-14T09:12:38;332.80;1715.20
70593;DHT22;58294;42.988;20.338;2023-03-14T09:15:04;332.90;1792.00
70593;DHT22;58294;42.988;20.338;2023-03-14T09:17:29;333.00;1740.80
70593;DHT22;58294;42.988;20.338;2023-03-14T09:19:55;333.10;1792.00
70593;DHT22;58294;42.988;20.338;2023-03-14T09:22:20;333.10;1638.40
70593;DHT22;58294;42.988;20.338;2023-03-14T09:24:46;333.20;1689.60
70593;DHT22;58294;42.988;20.338;2023-03-14T09:27:12;333.30;1740.80
70593;DHT22;58294;42.988;20.338;2023-03-14T09:29:37;333.40;1612.80
70593;DHT22;58294;42.988;20.338;2023-03-14T09:32:03;333.40;1740.80
70593;DHT22;58294;42.988;20.338;2023-03-14T09:34:29;333.50;1715.20
70593;DHT22;58294;42.988;20.338;2023-03-14T09:36:54;333.60;1740.80
70593;DHT22;58294;42.988;20.338;2023-03-14T09:39:20;333.70;1740.80
70593;DHT22;58294;42.988;20.338;2023-03-14T09:41:46;333.70;1766.40
70593;DHT22;58294;42.988;20.338;2023-03-14T09:46:41;358.50;1766.40
70593;DHT22;58294;42.988;20.338;2023-03-14T09:49:12;358.60;1792.00
70593;DHT22;58294;42.988;20.338;2023-03-14T09:51:40;358.80;1792.00
70593;DHT22;58294;42.988;20.338;2023-03-14T09:54:09;359.10;1740.80
70593;DHT22;58294;42.988;20.338;2023-03-14T09:56:39;359.10;1766.40
70593;DHT22;58294;42.988;20.338;2023-03-14T09:59:05;359.20;2176.00
70593;DHT22;58294;42.988;20.338;2023-03-14T10:01:34;384.00;1740.80
70593;DHT22;58294;42.988;20.338;2023-03-14T10:04:01;384.40;1638.40
70593;DHT22;58294;42.988;20.338;2023-03-14T10:06:29;384.60;1766.40
70593;DHT22;58294;42.988;20.338;2023-03-14T10:08:55;409.60;1945.60
70593;DHT22;58294;42.988;20.338;2023-03-14T10:11:22;410.00;1894.40
70593;DHT22;58294;42.988;20.338;2023-03-14T10:16:30;435.60;2227.20
70593;DHT22;58294;42.988;20.338;2023-03-14T10:19:00;436.10;2227.20
70593;DHT22;58294;42.988;20.338;2023-03-14T10:21:28;460.90;1945.60
70593;DHT22;58294;42.988;20.338;2023-03-14T10:23:53;461.30;1945.60
70593;DHT22;58294;42.988;20.338;2023-03-14T10:26:28;461.40;1792.00
70593;DHT22;58294;42.988;20.338;2023-03-14T10:31:59;487.20;2150.40
70593;DHT22;58294;42.988;20.338;2023-03-14T10:34:30;512.60;2380.80
70593;DHT22;58294;42.988;20.338;2023-03-14T10:37:05;538.00;2201.60
70593;DHT22;58294;42.988;20.338;2023-03-14T10:42:04;588.90;2201.60
70593;DHT22;58294;42.988;20.338;2023-03-14T10:44:30;589.50;1817.60
70593;DHT22;58294;42.988;20.338;2023-03-14T10:46:58;614.80;1459.20
70593;DHT22;58294;42.988;20.338;2023-03-14T10:49:29;640.30;2355.20
70593;DHT22;58294;42.988;20.338;2023-03-14T10:51:55;665.80;2227.20
70593;DHT22;58294;42.988;20.338;2023-03-14T10:54:21;666.30;1766.40
70593;DHT22;58294;42.988;20.338;2023-03-14T10:56:55;691.30;1587.20
70593;DHT22;58294;42.988;20.338;2023-03-14T10:59:21;691.60;1484.80
70593;DHT22;58294;42.988;20.338;2023-03-14T11:06:45;691.90;1228.80
70593;DHT22;58294;42.988;20.338;2023-03-14T11:09:18;691.80;1228.80
70593;DHT22;58294;42.988;20.338;2023-03-14T11:11:47;691.70;1228.80
70593;DHT22;58294;42.988;20.338;2023-03-14T11:16:50;692.00;1254.40
70593;DHT22;58294;42.988;20.338;2023-03-14T11:22:04;692.00;1100.80
70593;DHT22;58294;42.988;20.338;2023-03-14T11:34:27;717.30;1126.40
70593;DHT22;58294;42.988;20.338;2023-03-14T11:39:20;742.70;1254.40
70593;DHT22;58294;42.988;20.338;2023-03-14T11:41:46;742.90;1203.20
70593;DHT22;58294;42.988;20.338;2023-03-14T11:44:22;743.20;1100.80
70593;DHT22;58294;42.988;20.338;2023-03-14T11:46:59;768.00;1126.40
70593;DHT22;58294;42.988;20.338;2023-03-14T11:49:36;743.00;921.60
70593;DHT22;58294;42.988;20.338;2023-03-14T11:52:19;743.00;998.40
70593;DHT22;58294;42.988;20.338;2023-03-14T11:54:52;742.90;972.80
70593;DHT22;58294;42.988;20.338;2023-03-14T11:57:19;742.80;972.80
70593;DHT22;58294;42.988;20.338;2023-03-14T12:10:10;768.50;972.80
70593;DHT22;58294;42.988;20.338;2023-03-14T12:12:36;768.30;896.00
70593;DHT22;58294;42.988;20.338;2023-03-14T12:15:02;768.20;819.20
70593;DHT22;58294;42.988;20.338;2023-03-14T12:17:35;742.80;768.00
70593;DHT22;58294;42.988;20.338;2023-03-14T12:22:27;691.80;768.00
70593;DHT22;58294;42.988;20.338;2023-03-14T12:25:36;666.40;640.00
70593;DHT22;58294;42.988;20.338;2023-03-14T12:27:47;665.80;844.80
70593;DHT22;58294;42.988;20.338;2023-03-14T12:39:08;614.60;665.60
70593;DHT22;58294;42.988;20.338;2023-03-14T12:43:41;589.50;896.00
70593;DHT22;58294;42.988;20.338;2023-03-14T12:46:24;589.30;870.40
70593;DHT22;58294;42.988;20.338;2023-03-14T12:51:43;588.80;716.80
70593;DHT22;58294;42.988;20.338;2023-03-14T12:54:13;564.00;640.00
70593;DHT22;58294;42.988;20.338;2023-03-14T12:56:56;563.70;819.20
70593;DHT22;58294;42.988;20.338;2023-03-14T13:01:55;563.30;691.20
70593;DHT22;58294;42.988;20.338;2023-03-14T13:04:26;563.20;768.00
70593;DHT22;58294;42.988;20.338;2023-03-14T13:06:53;538.40;614.40
70593;DHT22;58294;42.988;20.338;2023-03-14T13:11:54;538.10;665.60
70593;DHT22;58294;42.988;20.338;2023-03-14T13:14:20;538.00;716.80
70593;DHT22;58294;42.988;20.338;2023-03-14T13:16:49;537.90;665.60
70593;DHT22;58294;42.988;20.338;2023-03-14T13:19:21;537.80;716.80
70593;DHT22;58294;42.988;20.338;2023-03-14T13:21:49;537.70;691.20
70593;DHT22;58294;42.988;20.338;2023-03-14T13:24:20;537.70;665.60
70593;DHT22;58294;42.988;20.338;2023-03-14T13:26:46;537.70;640.00
70593;DHT22;58294;42.988;20.338;2023-03-14T13:31:43;537.70;716.80
70593;DHT22;58294;42.988;20.338;2023-03-14T13:34:09;537.60;691.20
70593;DHT22;58294;42.988;20.338;2023-03-14T13:36:35;537.70;716.80
70593;DHT22;58294;42.988;20.338;2023-03-14T13:39:01;537.70;665.60
70593;DHT22;58294;42.988;20.338;2023-03-14T13:41:29;537.80;640.00
70593;DHT22;58294;42.988;20.338;2023-03-14T13:44:01;537.80;691.20
70593;DHT22;58294;42.988;20.338;2023-03-14T13:46:27;537.80;640.00
70593;DHT22;58294;42.988;20.338;2023-03-14T13:48:54;537.70;614.40
70593;DHT22;58294;42.988;20.338;2023-03-14T13:51:20;537.60;691.20
70593;DHT22;58294;42.988;20.338;2023-03-14T13:53:50;512.90;640.00
70593;DHT22;58294;42.988;20.338;2023-03-14T13:56:20;512.90;614.40
70593;DHT22;58294;42.988;20.338;2023-03-14T13:58:46;512.70;614.40
70593;DHT22;58294;42.988;20.338;2023-03-14T14:01:18;512.70;588.80
70593;DHT22;58294;42.988;20.338;2023-03-14T14:03:50;512.50;614.40
70593;DHT22;58294;42.988;20.338;2023-03-14T14:08:43;512.30;588.80
70593;DHT22;58294;42.988;20.338;2023-03-14T14:11:09;512.20;640.00
70593;DHT22;58294;42.988;20.338;2023-03-14T14:13:40;512.20;665.60
70593;DHT22;58294;42.988;20.338;2023-03-14T14:16:06;512.00;640.00
70593;DHT22;58294;42.988;20.338;2023-03-14T14:18:31;487.30;665.60
70593;DHT22;58294;42.988;20.338;2023-03-14T14:20:58;487.20;614.40
70593;DHT22;58294;42.988;20.338;2023-03-14T14:23:27;487.10;640.00
70593;DHT22;58294;42.988;20.338;2023-03-14T14:25:57;487.20;691.20
70593;DHT22;58294;42.988;20.338;2023-03-14T14:28:31;487.10;665.60
70593;DHT22;58294;42.988;20.338;2023-03-14T14:31:04;486.90;742.40
70593;DHT22;58294;42.988;20.338;2023-03-14T14:34:17;487.00;640.00
70593;DHT22;58294;42.988;20.338;2023-03-14T14:36:18;486.90;665.60
70593;DHT22;58294;42.988;20.338;2023-03-14T14:38:57;486.90;665.60
70593;DHT22;58294;42.988;20.338;2023-03-14T14:41:26;486.90;665.60
70593;DHT22;58294;42.988;20.338;2023-03-14T14:43:52;486.90;640.00
70593;DHT22;58294;42.988;20.338;2023-03-14T14:46:18;486.80;691.20
70593;DHT22;58294;42.988;20.338;2023-03-14T14:48:44;486.80;691.20
70593;DHT22;58294;42.988;20.338;2023-03-14T14:51:21;486.80;665.60
70593;DHT22;58294;42.988;20.338;2023-03-14T14:53:47;486.70;665.60
70593;DHT22;58294;42.988;20.338;2023-03-14T14:56:18;486.60;640.00
70593;DHT22;58294;42.988;20.338;2023-03-14T14:58:48;486.50;640.00
70593;DHT22;58294;42.988;20.338;2023-03-14T15:01:14;461.70;665.60
70593;DHT22;58294;42.988;20.338;2023-03-14T15:03:42;461.60;665.60
70593;DHT22;58294;42.988;20.338;2023-03-14T15:06:08;461.50;665.60
70593;DHT22;58294;42.988;20.338;2023-03-14T15:08:35;461.50;640.00
70593;DHT22;58294;42.988;20.338;2023-03-14T15:11:02;461.40;665.60
70593;DHT22;58294;42.988;20.338;2023-03-14T15:13:28;461.20;691.20
70593;DHT22;58294;42.988;20.338;2023-03-14T15:15:53;461.20;691.20
70593;DHT22;58294;42.988;20.338;2023-03-14T15:18:21;461.10;665.60
70593;DHT22;58294;42.988;20.338;2023-03-14T15:20:47;461.00;665.60
70593;DHT22;58294;42.988;20.338;2023-03-14T15:23:14;460.90;665.60
70593;DHT22;58294;42.988;20.338;2023-03-14T15:25:40;460.80;691.20
70593;DHT22;58294;42.988;20.338;2023-03-14T15:28:14;436.10;665.60
70593;DHT22;58294;42.988;20.338;2023-03-14T15:30:41;436.00;640.00
70593;DHT22;58294;42.988;20.338;2023-03-14T15:33:06;435.90;640.00
70593;DHT22;58294;42.988;20.338;2023-03-14T15:35:37;435.90;665.60
70593;DHT22;58294;42.988;20.338;2023-03-14T15:38:03;435.70;665.60
70593;DHT22;58294;42.988;20.338;2023-03-14T15:40:29;435.70;665.60
70593;DHT22;58294;42.988;20.338;2023-03-14T15:42:54;435.60;691.20
70593;DHT22;58294;42.988;20.338;2023-03-14T15:45:20;435.60;665.60
70593;DHT22;58294;42.988;20.338;2023-03-14T15:47:45;435.50;665.60
70593;DHT22;58294;42.988;20.338;2023-03-14T15:50:11;435.40;665.60
70593;DHT22;58294;42.988;20.338;2023-03-14T15:52:36;435.30;691.20
70593;DHT22;58294;42.988;20.338;2023-03-14T15:55:02;435.20;691.20
70593;DHT22;58294;42.988;20.338;2023-03-14T15:57:28;410.50;691.20
70593;DHT22;58294;42.988;20.338;2023-03-14T15:59:53;410.40;665.60